Emirates A388 at Hong Kong on Apr 7th 2012, blew tyres on landing

Last Update: April 8, 2012 / 19:38:22 GMT/Zulu time

Bookmark this article
Incident Facts

Date of incident
Apr 7, 2012

Flight number
EK-384

Destination
Hong Kong, China

Aircraft Registration
A6-EDQ

Aircraft Type
Airbus A380-800

ICAO Type Designator
A388

Roll out seen on IFE, passengers disembarkingwheel damageAn Emirates Airlines Airbus A380-800, registration A6-EDQ performing flight EK-384 from Bangkok (Thailand) to Hong Kong (China), landed on Hong Kong's runway 07L at 17:33L (09:33Z) and vacated the runway via high speed turn off A7 stopping just past the hold short line with two blown right hand main tyres, the aircraft was disabled. The passengers disembarked onto the taxiway via mobile stairs about one hour after landing. The northern runway 07L/25R was closed for about 4 hours until the aircraft was towed off the taxiway. The runway had been estimated to return to service by 23:30Z (07:30L Apr 8th Hong Kong Time), about 14 hours after landing. Passengers reported they saw sparks from an engine at the right hand side and noticed a burning smell, the crew quickly announced they had burst tyres. An observer on the ground reported maintenance staff were replacing a number of tyres. Sources at Hong Kong Airport report the aircraft suffered an anti-skid failure on landing resulting in brakes blocking and causing two main wheels to be ground down to the axle. The airline reported the aircraft blew two tyres on landing. Metars: VHHH 071100Z 11012KT 9999 FEW025 SCT030 22/14 Q1016 NOSIG VHHH 071030Z 11015KT 9999 FEW025 SCT030 22/14 Q1016 NOSIG VHHH 071000Z 10013KT 9999 FEW025 SCT035 22/12 Q1015 NOSIG VHHH 070930Z 11013KT 9999 FEW025 SCT032 22/12 Q1015 NOSIG VHHH 070900Z 10013KT 9999 FEW025 SCT032 22/12 Q1015 NOSIG VHHH 070830Z 10012KT 9999 FEW025 SCT032 23/12 Q1015 NOSIG VHHH 070800Z 09012KT 9999 FEW025 SCT032 23/11 Q1015 NOSIG
Incident Facts

Date of incident
Apr 7, 2012

Flight number
EK-384

Destination
Hong Kong, China

Aircraft Registration
A6-EDQ

Aircraft Type
Airbus A380-800

ICAO Type Designator
A388

This article is published under license from Avherald.com. © of text by Avherald.com.
Article source

You can read 2 more free articles without a subscription.

Subscribe now and continue reading without any limits!

Are you a subscriber? Login
Subscribe

Read unlimited articles and receive our daily update briefing. Gain better insights into what is happening in commercial aviation safety.

Free newsletter

Want to know more and stay ahead? Get our free weekly newsletter and join 5591 existing subscribers.

By subscribing, you accept our terms and conditions and confirm that you've read our privacy policy.

Send tip

Support AeroInside by sending a small tip amount.

Related articles

Newest articles

Subscribe today

Are you researching aviation incidents? Get access to AeroInside Insights, unlimited read access and receive the daily newsletter.

Pick your plan and subscribe

Partner

Blockaviation logo

A new way to document and demonstrate airworthiness compliance and aircraft value. Find out more.

Virtual Speech logo

ELITE Simulation Solutions is a leading global provider of Flight Simulation Training Devices, IFR training software as well as flight controls and related services. Find out more.

Get updates

Never miss an article from AeroInside. Subscribe to our free weekly newsletter and join 5591 existing subscribers.

By subscribing, you accept our terms and conditions and that you've read our privacy policy.

AeroInside Blog
Popular aircraft
Airbus A320
Boeing 737-800
Boeing 737-800 MAX
Popular airlines
American Airlines
United
Delta
Air Canada
Lufthansa
British Airways